Time;durP1;ratioP1;P1;durP2;ratioP2;P2;SDS_P1;SDS_P2;PMS_P1;PMS_P2;Temp;Humidity;BMP_temperature;BMP_pressure;BME280_temperature;BME280_humidity;BME280_pressure;Samples;Min_cycle;Max_cycle;Signal;HPM_P1;HPM_P2
2023/06/05 00:00:19;;;;;;;7.72;3.60;;;;;;;13.54;59.58;101015.75;10090438;29;20436;-76
2023/06/05 00:05:25;;;;;;;5.75;2.80;;;;;;;13.70;58.77;101014.31;10073779;29;20052;-77
2023/06/05 00:10:30;;;;;;;5.60;2.88;;;;;;;13.63;58.78;101007.75;10092909;29;20124;-75
2023/06/05 00:15:35;;;;;;;5.55;3.20;;;;;;;12.72;61.29;101010.72;10091485;29;20041;-76
2023/06/05 00:20:38;;;;;;;5.82;3.20;;;;;;;12.28;62.92;101009.69;10090689;29;20477;-76
2023/06/05 00:25:42;;;;;;;5.30;3.30;;;;;;;12.25;63.00;101001.84;10089579;29;20494;-74
2023/06/05 00:30:45;;;;;;;5.95;3.08;;;;;;;12.11;63.51;101002.94;10089590;29;20482;-76
2023/06/05 00:35:48;;;;;;;6.78;3.38;;;;;;;12.66;62.12;100997.75;10089545;29;20477;-76
2023/06/05 00:40:52;;;;;;;7.22;3.95;;;;;;;12.96;60.76;100991.72;10089883;29;20071;-75
2023/06/05 00:46:02;;;;;;;5.50;3.17;;;;;;;13.00;60.28;100987.75;10073308;29;20057;-75
2023/06/05 00:51:06;;;;;;;6.22;3.17;;;;;;;13.08;60.13;100989.84;10073428;29;20053;-75
2023/06/05 00:56:11;;;;;;;6.45;3.50;;;;;;;13.02;59.80;100996.59;10089679;29;20051;-76
2023/06/05 01:01:15;;;;;;;4.90;3.35;;;;;;;12.68;60.78;100993.09;10089970;29;20068;-75
2023/06/05 01:06:19;;;;;;;7.25;3.38;;;;;;;12.26;62.28;100998.16;10070133;29;20080;-76
2023/06/05 01:11:29;;;;;;;8.80;3.70;;;;;;;12.47;61.87;100991.13;10088087;29;20052;-76
2023/06/05 01:16:34;;;;;;;6.18;3.10;;;;;;;12.51;61.81;100989.06;10087841;29;20049;-76
2023/06/05 01:21:37;;;;;;;6.50;3.95;;;;;;;12.32;62.00;100992.34;10091028;29;20161;-76
2023/06/05 01:26:52;;;;;;;5.20;3.65;;;;;;;12.17;62.36;100989.81;10090003;29;20040;-76
2023/06/05 01:32:01;;;;;;;5.90;3.83;;;;;;;12.13;62.89;100980.28;10071836;29;20057;-76
2023/06/05 01:37:08;;;;;;;4.45;3.08;;;;;;;11.45;64.51;100975.69;10072588;29;20045;-75
2023/06/05 01:42:14;;;;;;;7.25;4.18;;;;;;;11.31;65.53;100982.09;10089782;29;20104;-75
2023/06/05 01:47:17;;;;;;;4.50;3.53;;;;;;;11.87;63.94;100981.44;10072235;29;20766;-75
2023/06/05 01:52:20;;;;;;;6.00;4.15;;;;;;;12.04;63.10;100972.06;10072440;29;20052;-76
2023/06/05 01:57:24;;;;;;;9.38;4.57;;;;;;;11.94;62.92;100975.47;10075538;29;20424;-75
2023/06/05 02:02:28;;;;;;;7.78;4.78;;;;;;;11.90;63.37;100984.78;10086490;29;20079;-76
2023/06/05 02:07:32;;;;;;;7.55;4.40;;;;;;;11.87;63.27;100978.75;10071124;29;20053;-75
2023/06/05 02:12:37;;;;;;;9.02;4.65;;;;;;;11.94;63.17;100977.31;10096516;29;20045;-76
2023/06/05 02:17:44;;;;;;;6.82;4.53;;;;;;;12.02;63.25;100971.34;10094314;29;20109;-76
2023/06/05 02:22:49;;;;;;;7.82;4.60;;;;;;;11.92;63.34;100971.19;10096231;29;20052;-76
2023/06/05 02:27:54;;;;;;;7.60;4.35;;;;;;;12.01;63.28;100967.78;10095655;29;20075;-76
2023/06/05 02:33:00;;;;;;;10.43;4.35;;;;;;;11.99;63.03;100955.44;10096268;29;20052;-75
2023/06/05 02:38:05;;;;;;;13.20;5.10;;;;;;;11.73;63.33;100967.22;10095444;29;20053;-75
2023/06/05 02:43:11;;;;;;;8.07;4.50;;;;;;;11.41;64.63;100968.81;10095737;29;20124;-76
2023/06/05 02:48:14;;;;;;;10.40;5.05;;;;;;;11.20;65.80;100961.38;10077997;29;20592;-75
2023/06/05 02:53:17;;;;;;;10.82;5.68;;;;;;;11.45;65.28;100964.91;10095135;29;20037;-76
2023/06/05 02:58:21;;;;;;;9.25;4.55;;;;;;;11.39;65.08;100954.63;10077422;29;20524;-75
2023/06/05 03:03:32;;;;;;;9.60;4.97;;;;;;;11.49;64.91;100955.63;10077239;29;20049;-75
2023/06/05 03:08:37;;;;;;;7.47;4.88;;;;;;;11.42;64.66;100955.25;10074758;29;20049;-75
2023/06/05 03:13:46;;;;;;;9.55;5.97;;;;;;;11.15;65.47;100957.31;10075686;29;20053;-76
2023/06/05 03:18:50;;;;;;;10.77;6.18;;;;;;;11.05;66.34;100955.28;10077521;29;20105;-76
2023/06/05 03:23:53;;;;;;;9.73;5.97;;;;;;;11.18;65.93;100949.03;10076181;29;20505;-76
2023/06/05 03:28:57;;;;;;;9.75;6.05;;;;;;;11.17;66.12;100953.56;10076722;29;20060;-76
2023/06/05 03:34:03;;;;;;;10.13;5.80;;;;;;;11.21;65.90;100948.78;10075714;29;20506;-76
2023/06/05 03:39:07;;;;;;;9.93;6.03;;;;;;;11.27;65.87;100937.56;10093224;29;20159;-75
2023/06/05 03:44:15;;;;;;;11.20;6.68;;;;;;;11.31;65.78;100948.97;10074725;29;20105;-75
2023/06/05 03:49:20;;;;;;;8.98;6.38;;;;;;;11.15;66.03;100938.50;10076375;29;20056;-76
2023/06/05 03:54:25;;;;;;;12.65;6.50;;;;;;;11.28;66.13;100948.22;10076053;29;20624;-76
2023/06/05 03:59:30;;;;;;;10.65;6.13;;;;;;;11.26;66.14;100947.47;10090957;29;20084;-76
2023/06/05 04:04:36;;;;;;;11.45;6.63;;;;;;;11.34;66.03;100946.06;10075283;29;20049;-76
2023/06/05 04:09:39;;;;;;;10.98;6.78;;;;;;;11.43;65.68;100950.72;10091967;29;20053;-76
2023/06/05 04:14:44;;;;;;;11.90;6.93;;;;;;;11.47;65.68;100949.53;10074727;29;20132;-75
2023/06/05 04:19:48;;;;;;;14.02;6.97;;;;;;;11.56;65.59;100953.34;10074993;29;20059;-76
2023/06/05 04:24:51;;;;;;;13.32;6.93;;;;;;;11.49;65.35;100945.75;10074161;29;20105;-76
2023/06/05 04:29:56;;;;;;;16.58;8.38;;;;;;;11.27;66.40;100957.28;10091664;29;20097;-76
2023/06/05 04:34:59;;;;;;;13.02;7.30;;;;;;;11.44;66.79;100953.31;10073508;29;20044;-76
2023/06/05 04:40:05;;;;;;;15.02;7.53;;;;;;;11.61;66.18;100948.47;10075270;29;20100;-75
2023/06/05 04:45:11;;;;;;;11.55;7.63;;;;;;;11.62;65.79;100953.72;10090065;29;20053;-75
2023/06/05 04:50:26;;;;;;;12.82;8.15;;;;;;;11.71;65.98;100960.22;10075855;29;20045;-75
2023/06/05 04:55:46;;;;;;;13.30;7.47;;;;;;;11.75;66.10;100952.81;10503248;28;20394;-75
2023/06/05 05:00:52;;;;;;;15.85;8.18;;;;;;;11.68;65.97;100961.34;10470687;28;20056;-76
2023/06/05 05:05:56;;;;;;;16.02;7.57;;;;;;;11.86;66.13;100953.69;10468661;28;20078;-77
2023/06/05 05:11:01;;;;;;;11.88;7.45;;;;;;;12.07;65.80;100945.78;10470362;28;20083;-76
2023/06/05 05:16:04;;;;;;;17.02;8.15;;;;;;;12.26;65.56;100945.19;10468923;28;20510;-76
2023/06/05 05:21:08;;;;;;;14.05;7.88;;;;;;;12.40;65.49;100949.50;10468947;28;20131;-77
2023/06/05 05:26:12;;;;;;;16.63;10.05;;;;;;;12.52;65.14;100950.34;10468492;28;20106;-76
2023/06/05 05:31:17;;;;;;;16.25;8.77;;;;;;;12.47;64.95;100948.00;10468741;28;20116;-76
2023/06/05 05:36:21;;;;;;;19.88;9.13;;;;;;;12.72;65.22;100946.88;10470858;28;20120;-75
2023/06/05 05:41:26;;;;;;;16.55;9.32;;;;;;;12.90;64.54;100963.41;10472477;28;20063;-76
2023/06/05 05:46:29;;;;;;;15.90;9.20;;;;;;;13.01;64.27;100959.84;10474020;28;20060;-76
2023/06/05 05:51:33;;;;;;;17.08;9.40;;;;;;;13.19;63.99;100961.03;10475567;28;20693;-76
2023/06/05 05:56:37;;;;;;;14.45;8.95;;;;;;;13.25;63.17;100960.50;10471322;28;20040;-75
2023/06/05 06:01:40;;;;;;;14.43;8.85;;;;;;;13.44;63.35;100967.94;10467179;28;20037;-75
2023/06/05 06:06:44;;;;;;;14.80;9.40;;;;;;;13.62;63.04;100967.38;10439850;28;20494;-76
2023/06/05 06:11:48;;;;;;;16.80;9.45;;;;;;;13.77;62.67;100965.19;10439654;28;20467;-76
2023/06/05 06:16:53;;;;;;;15.00;9.02;;;;;;;13.90;62.22;100966.75;10436774;28;20133;-74
2023/06/05 06:21:56;;;;;;;15.88;9.20;;;;;;;14.12;62.03;100963.03;10440088;28;20033;-75
2023/06/05 06:27:00;;;;;;;14.57;8.70;;;;;;;14.43;60.79;100959.53;10438542;28;20160;-74
2023/06/05 06:32:05;;;;;;;19.38;9.40;;;;;;;14.50;60.31;100968.78;10446900;28;20562;-74
2023/06/05 06:37:09;;;;;;;14.57;8.80;;;;;;;14.74;59.72;100968.47;10440813;28;20056;-75
2023/06/05 06:42:14;;;;;;;16.55;9.05;;;;;;;14.93;59.39;100970.38;10439631;28;20037;-75
2023/06/05 06:47:26;;;;;;;13.40;8.25;;;;;;;15.35;58.71;100959.34;10436904;28;20037;-75
2023/06/05 06:52:29;;;;;;;18.40;7.90;;;;;;;15.56;57.81;100970.91;10435600;28;20082;-75
2023/06/05 06:57:33;;;;;;;12.77;8.43;;;;;;;15.83;56.92;100970.19;10441374;28;20033;-74
2023/06/05 07:02:37;;;;;;;8.40;6.70;;;;;;;15.47;57.38;100972.63;10448583;28;20046;-75
2023/06/05 07:07:40;;;;;;;10.43;7.22;;;;;;;16.31;56.40;100973.78;10451491;28;20041;-74
2023/06/05 07:12:45;;;;;;;11.35;7.68;;;;;;;16.70;54.26;100974.53;10438986;28;20041;-75
2023/06/05 07:17:47;;;;;;;9.63;6.60;;;;;;;17.31;53.61;100958.63;10437600;28;20045;-74
2023/06/05 07:22:50;;;;;;;9.05;6.72;;;;;;;18.47;51.48;100967.50;10437554;28;20053;-73
2023/06/05 07:27:55;;;;;;;16.02;6.90;;;;;;;19.98;48.24;100966.50;10436029;28;20037;-75
2023/06/05 07:32:57;;;;;;;11.70;7.53;;;;;;;21.10;44.90;100961.94;10434420;28;20036;-73
2023/06/05 07:38:00;;;;;;;12.85;6.82;;;;;;;21.64;44.75;100959.16;10434682;28;20522;-73
2023/06/05 07:43:06;;;;;;;13.23;7.05;;;;;;;22.19;43.30;100953.53;10433503;28;20493;-75
2023/06/05 07:48:09;;;;;;;12.60;7.25;;;;;;;21.43;44.13;100956.25;10434854;28;20120;-73
2023/06/05 07:53:12;;;;;;;9.15;6.20;;;;;;;21.80;43.67;100958.22;10433329;28;20052;-73
2023/06/05 07:58:16;;;;;;;12.02;6.88;;;;;;;22.03;43.41;100954.59;10432435;28;20063;-73
2023/06/05 08:03:19;;;;;;;10.30;6.72;;;;;;;21.91;43.16;100948.69;10430923;28;20057;-73
2023/06/05 08:08:23;;;;;;;8.82;6.97;;;;;;;21.92;42.61;100946.81;10432189;28;20067;-74
2023/06/05 08:13:29;;;;;;;10.82;6.90;;;;;;;21.84;43.74;100948.59;10420410;28;20037;-75
2023/06/05 08:18:32;;;;;;;9.85;6.10;;;;;;;21.84;42.54;100950.47;10434921;28;20051;-74
2023/06/05 08:23:35;;;;;;;9.88;5.50;;;;;;;21.96;43.63;100942.66;10442154;28;20095;-72
2023/06/05 08:28:41;;;;;;;8.50;6.20;;;;;;;21.96;43.86;100938.03;10434899;28;20420;-74
2023/06/05 08:33:44;;;;;;;9.63;6.43;;;;;;;22.14;42.60;100920.44;10435310;28;20052;-74
2023/06/05 08:38:46;;;;;;;10.05;5.88;;;;;;;22.19;43.51;100921.59;10437948;28;20044;-74
2023/06/05 08:43:51;;;;;;;11.15;5.70;;;;;;;22.59;42.42;100924.88;10437617;28;20033;-74
2023/06/05 08:48:56;;;;;;;6.50;5.30;;;;;;;22.43;43.07;100925.06;10360187;28;20042;-74
2023/06/05 08:54:04;;;;;;;10.35;5.93;;;;;;;22.80;41.96;100915.91;10306481;28;20077;-74
2023/06/05 08:59:08;;;;;;;8.18;5.30;;;;;;;23.12;41.70;100911.00;10307633;28;20049;-74
2023/06/05 09:04:11;;;;;;;13.00;5.68;;;;;;;23.61;41.38;100913.81;10319236;28;20050;-75
2023/06/05 09:09:15;;;;;;;9.82;4.50;;;;;;;23.81;40.75;100913.19;10311908;28;20045;-75
2023/06/05 09:14:26;;;;;;;6.10;4.70;;;;;;;23.86;40.09;100908.78;10311825;28;21283;-76
2023/06/05 09:19:37;;;;;;;8.73;4.80;;;;;;;24.16;39.57;100903.06;10310834;28;21640;-76
2023/06/05 09:24:41;;;;;;;11.32;4.50;;;;;;;24.49;39.84;100908.78;10312191;28;20046;-76
2023/06/05 09:29:45;;;;;;;8.95;4.45;;;;;;;24.64;37.85;100910.53;10306815;28;21115;-76
2023/06/05 09:34:59;;;;;;;9.63;4.57;;;;;;;24.81;38.63;100902.78;10305829;28;20050;-76
2023/06/05 09:40:04;;;;;;;7.57;4.28;;;;;;;25.19;37.91;100906.72;10317267;28;20614;-76
2023/06/05 09:45:10;;;;;;;8.05;4.32;;;;;;;25.57;37.53;100900.63;10315503;28;20231;-77
2023/06/05 09:50:22;;;;;;;6.90;4.50;;;;;;;25.67;36.74;100903.00;10324911;28;20061;-76
2023/06/05 09:55:28;;;;;;;10.77;4.25;;;;;;;25.84;36.41;100906.16;10314403;28;20197;-76
2023/06/05 10:00:33;;;;;;;8.38;4.70;;;;;;;26.24;36.70;100893.19;10313542;28;20050;-75
2023/06/05 10:05:38;;;;;;;7.63;4.50;;;;;;;26.39;36.40;100883.84;10313997;28;20049;-75
2023/06/05 10:10:43;;;;;;;9.70;4.50;;;;;;;26.38;36.41;100882.97;10317125;28;20747;-76
2023/06/05 10:15:47;;;;;;;7.72;4.30;;;;;;;27.03;35.59;100884.81;10323474;28;20045;-76
2023/06/05 10:20:50;;;;;;;11.68;4.35;;;;;;;27.23;34.31;100873.66;10321378;28;20053;-76
2023/06/05 10:25:55;;;;;;;5.57;3.30;;;;;;;26.48;34.26;100875.09;10323782;28;20607;-76
2023/06/05 10:31:17;;;;;;;5.10;3.22;;;;;;;25.78;35.07;100874.84;10322074;28;20074;-75
2023/06/05 10:36:45;;;;;;;7.05;3.83;;;;;;;26.90;34.17;100859.03;10313133;28;20054;-76
2023/06/05 10:41:50;;;;;;;8.18;2.58;;;;;;;27.38;33.09;100860.41;10311634;28;20452;-76
2023/06/05 10:46:55;;;;;;;6.03;2.95;;;;;;;28.00;31.56;100850.34;10312452;28;20470;-75
2023/06/05 10:52:00;;;;;;;3.45;2.55;;;;;;;28.07;31.06;100853.00;10313365;28;20046;-76
2023/06/05 10:57:06;;;;;;;4.20;2.97;;;;;;;28.23;31.62;100846.03;10315789;28;20046;-77
2023/06/05 11:02:26;;;;;;;4.82;2.65;;;;;;;28.47;29.88;100842.34;10311473;28;20521;-77
2023/06/05 11:07:31;;;;;;;8.75;2.63;;;;;;;28.86;29.10;100847.56;10312054;28;20073;-74
2023/06/05 11:12:59;;;;;;;3.08;1.85;;;;;;;28.29;28.45;100836.81;10311162;28;20046;-76
2023/06/05 11:18:35;;;;;;;2.60;2.08;;;;;;;28.24;26.85;100825.63;10313339;28;20053;-77
2023/06/05 11:23:38;;;;;;;4.05;2.10;;;;;;;28.35;27.55;100824.84;10314123;28;20512;-75
2023/06/05 11:28:42;;;;;;;3.22;1.83;;;;;;;29.20;27.22;100828.56;10313135;28;20046;-76
2023/06/05 11:33:47;;;;;;;6.15;2.30;;;;;;;29.78;26.88;100820.31;10309695;28;20601;-75
2023/06/05 11:38:53;;;;;;;2.58;1.80;;;;;;;29.40;24.70;100815.25;10306715;28;20123;-76
2023/06/05 11:43:57;;;;;;;2.38;2.15;;;;;;;29.37;24.47;100818.50;10310537;28;20125;-76
2023/06/05 11:49:01;;;;;;;3.65;1.90;;;;;;;29.68;25.15;100810.97;10309518;28;20143;-76
2023/06/05 11:54:05;;;;;;;3.08;1.85;;;;;;;29.47;25.16;100815.97;10313221;28;20058;-75
2023/06/05 11:59:10;;;;;;;3.83;2.10;;;;;;;29.64;23.96;100807.81;10310237;28;20062;-76
2023/06/05 12:04:14;;;;;;;3.78;2.08;;;;;;;29.72;25.51;100812.16;10309411;28;20168;-76
2023/06/05 12:09:19;;;;;;;3.00;1.90;;;;;;;28.63;25.96;100809.63;10309068;28;20136;-76
2023/06/05 12:14:32;;;;;;;4.32;1.90;;;;;;;29.69;26.64;100807.13;10310586;28;21200;-75
2023/06/05 12:19:37;;;;;;;3.78;2.00;;;;;;;29.85;25.07;100798.06;10307441;28;20568;-76
2023/06/05 12:24:40;;;;;;;2.53;2.10;;;;;;;29.52;26.42;100798.66;10306529;28;20042;-75
2023/06/05 12:29:54;;;;;;;3.75;2.33;;;;;;;29.51;25.92;100802.50;10311277;28;20042;-76
2023/06/05 12:34:58;;;;;;;2.75;2.00;;;;;;;30.13;26.89;100777.94;10308631;28;20050;-76
2023/06/05 12:40:11;;;;;;;;;;;;;;;30.59;25.61;100789.09;10313085;28;20053;-75
2023/06/05 12:45:15;;;;;;;4.15;2.00;;;;;;;30.60;25.32;100785.22;10312888;28;19927;-76
2023/06/05 12:50:19;;;;;;;5.55;2.78;;;;;;;29.63;24.77;100780.41;10312818;28;20049;-76
2023/06/05 12:55:22;;;;;;;4.28;2.20;;;;;;;30.33;26.78;100771.09;10310347;28;20046;-76
2023/06/05 13:00:24;;;;;;;5.45;2.22;;;;;;;30.76;25.74;100766.97;10307619;28;20054;-76
2023/06/05 13:05:29;;;;;;;3.83;2.13;;;;;;;31.06;26.12;100759.19;10310446;28;20510;-75
2023/06/05 13:10:31;;;;;;;3.65;2.20;;;;;;;30.91;25.93;100758.94;10307109;28;20095;-75
2023/06/05 13:15:34;;;;;;;2.67;2.28;;;;;;;30.84;25.33;100753.53;10310967;28;20058;-76
2023/06/05 13:20:42;;;;;;;3.75;2.28;;;;;;;30.89;25.86;100745.31;10320494;28;21280;-75
2023/06/05 13:25:45;;;;;;;3.10;2.45;;;;;;;31.61;26.04;100738.13;10322989;28;20728;-74
2023/06/05 13:30:48;;;;;;;4.65;2.47;;;;;;;30.79;24.96;100735.97;10324882;28;20038;-76
2023/06/05 13:35:53;;;;;;;6.25;2.28;;;;;;;30.57;25.74;100731.13;10323822;28;20050;-76
2023/06/05 13:40:56;;;;;;;6.07;2.00;;;;;;;30.72;26.02;100722.28;10320258;28;20053;-76
2023/06/05 13:45:59;;;;;;;2.97;1.90;;;;;;;31.59;25.06;100723.63;10326604;28;20054;-76
2023/06/05 13:51:03;;;;;;;4.57;2.13;;;;;;;31.59;24.72;100723.63;10313766;28;20173;-75
2023/06/05 13:56:07;;;;;;;12.57;2.60;;;;;;;31.84;24.92;100719.56;10314857;28;20047;-76
2023/06/05 14:01:10;;;;;;;5.40;2.25;;;;;;;29.94;24.94;100721.84;10314180;28;20104;-76
2023/06/05 14:06:14;;;;;;;2.03;1.80;;;;;;;30.88;25.37;100715.91;10311486;28;20078;-76
2023/06/05 14:11:17;;;;;;;2.83;1.90;;;;;;;31.03;24.34;100709.75;10318034;28;20054;-76
2023/06/05 14:16:21;;;;;;;3.03;1.90;;;;;;;29.94;24.65;100701.63;10314409;28;20058;-76
2023/06/05 14:21:25;;;;;;;2.03;1.92;;;;;;;30.76;25.02;100697.66;10316905;28;20042;-76
2023/06/05 14:26:29;;;;;;;2.30;2.10;;;;;;;30.72;24.33;100697.34;10313263;28;20710;-76
2023/06/05 14:31:33;;;;;;;3.47;1.95;;;;;;;31.17;23.80;100690.84;10316423;28;20217;-76
2023/06/05 14:36:37;;;;;;;3.03;1.88;;;;;;;31.14;23.37;100691.34;10312628;28;20054;-76
2023/06/05 14:41:40;;;;;;;3.90;2.08;;;;;;;31.09;24.40;100691.25;10316066;28;20049;-76
2023/06/05 14:46:44;;;;;;;3.15;1.90;;;;;;;31.66;23.25;100687.38;10316120;28;20104;-76
2023/06/05 14:51:49;;;;;;;3.08;2.00;;;;;;;30.63;23.26;100685.75;10316298;28;20101;-76
2023/06/05 14:56:51;;;;;;;3.08;2.40;;;;;;;29.78;24.57;100687.44;10323742;28;20046;-76
2023/06/05 15:01:54;;;;;;;4.07;2.10;;;;;;;30.46;22.87;100685.75;10321365;28;20046;-76
2023/06/05 15:06:59;;;;;;;3.55;1.60;;;;;;;31.16;24.33;100685.53;10321855;28;20041;-77
2023/06/05 15:12:02;;;;;;;3.13;1.98;;;;;;;31.23;23.63;100664.03;10318331;28;20053;-77
2023/06/05 15:17:06;;;;;;;1.85;1.75;;;;;;;31.18;23.24;100666.72;10321748;28;20072;-77
2023/06/05 15:22:10;;;;;;;2.13;1.92;;;;;;;30.87;23.63;100658.75;10316142;28;20062;-76
2023/06/05 15:27:13;;;;;;;2.45;1.77;;;;;;;30.98;23.64;100664.47;10309139;28;20057;-76
2023/06/05 15:32:16;;;;;;;3.78;2.08;;;;;;;30.62;23.65;100659.13;10301313;28;20053;-77
2023/06/05 15:37:24;;;;;;;4.07;2.28;;;;;;;30.87;23.77;100655.97;10298985;28;20053;-76
2023/06/05 15:42:29;;;;;;;2.10;1.90;;;;;;;30.71;23.45;100648.50;10312060;28;20595;-76
2023/06/05 15:47:32;;;;;;;3.03;2.10;;;;;;;30.47;23.53;100656.09;10306731;28;20183;-77
2023/06/05 15:52:38;;;;;;;4.07;2.00;;;;;;;30.63;22.76;100638.63;10305982;28;20046;-76
2023/06/05 15:57:43;;;;;;;3.95;2.10;;;;;;;30.41;21.77;100646.03;10307739;28;20056;-76
2023/06/05 16:02:46;;;;;;;2.75;1.83;;;;;;;30.68;23.21;100640.69;10323525;28;20061;-76
2023/06/05 16:07:50;;;;;;;7.90;4.20;;;;;;;30.01;23.02;100639.47;10323616;28;20168;-76
2023/06/05 16:12:53;;;;;;;4.80;3.70;;;;;;;30.15;22.65;100631.72;10325754;28;20600;-76
2023/06/05 16:17:56;;;;;;;4.85;3.45;;;;;;;30.72;23.15;100633.56;10325943;28;20089;-76
2023/06/05 16:23:00;;;;;;;6.78;2.10;;;;;;;30.47;23.62;100629.25;10322431;28;20045;-76
2023/06/05 16:28:03;;;;;;;3.50;2.20;;;;;;;31.11;22.62;100625.28;10325394;28;20797;-76
2023/06/05 16:33:06;;;;;;;7.63;2.47;;;;;;;32.12;21.26;100622.13;10323235;28;20702;-76
2023/06/05 16:38:10;;;;;;;2.80;2.08;;;;;;;34.69;19.01;100613.94;10314566;28;21326;-76
2023/06/05 16:43:13;;;;;;;4.25;2.17;;;;;;;37.06;18.00;100615.19;10318734;28;21221;-75
2023/06/05 16:48:16;;;;;;;4.22;1.95;;;;;;;38.20;17.58;100599.41;10359819;28;20409;-75
2023/06/05 16:53:20;;;;;;;3.22;2.35;;;;;;;38.35;17.16;100603.94;10363254;28;20284;-75
2023/06/05 16:58:23;;;;;;;2.45;2.20;;;;;;;38.21;16.64;100601.09;10366718;28;20046;-75
2023/06/05 17:03:26;;;;;;;4.47;1.95;;;;;;;39.44;16.61;100594.06;10367133;28;20544;-75
2023/06/05 17:08:31;;;;;;;2.22;2.00;;;;;;;39.49;16.48;100600.69;10355456;28;20073;-75
2023/06/05 17:13:34;;;;;;;4.53;2.20;;;;;;;39.51;16.14;100602.03;10359125;28;20041;-76
2023/06/05 17:18:36;;;;;;;4.00;2.50;;;;;;;38.70;16.40;100591.28;10364671;28;20045;-75
2023/06/05 17:23:41;;;;;;;9.60;2.45;;;;;;;39.01;16.23;100588.72;10364721;28;20077;-76
2023/06/05 17:28:44;;;;;;;2.95;2.58;;;;;;;38.76;16.44;100600.44;10363010;28;20041;-75
2023/06/05 17:33:46;;;;;;;3.45;2.35;;;;;;;37.65;17.40;100587.84;10360631;28;20038;-75
2023/06/05 17:38:51;;;;;;;3.45;2.28;;;;;;;36.78;17.28;100597.25;10362568;28;20041;-75
2023/06/05 17:43:54;;;;;;;5.45;3.60;;;;;;;36.62;17.80;100593.78;10356640;28;20156;-74
2023/06/05 17:48:57;;;;;;;3.55;2.40;;;;;;;34.08;19.08;100595.22;10357942;28;20050;-75
2023/06/05 17:54:02;;;;;;;4.22;2.22;;;;;;;30.27;21.85;100606.72;10357277;28;20453;-74
2023/06/05 17:59:05;;;;;;;3.95;2.35;;;;;;;28.04;23.96;100607.75;10353387;28;20038;-75
2023/06/05 18:04:09;;;;;;;5.35;2.53;;;;;;;26.84;25.14;100600.03;10359115;28;20054;-75
2023/06/05 18:09:14;;;;;;;4.68;3.10;;;;;;;26.06;27.14;100604.00;10356820;28;20042;-74
2023/06/05 18:14:17;;;;;;;2.90;2.55;;;;;;;25.32;27.40;100616.38;10355807;28;20049;-74
2023/06/05 18:19:21;;;;;;;11.27;7.38;;;;;;;25.09;28.88;100608.59;10357080;28;20046;-75
2023/06/05 18:24:26;;;;;;;10.13;5.82;;;;;;;24.77;29.65;100611.19;10361647;28;20132;-76
2023/06/05 18:29:29;;;;;;;6.68;4.38;;;;;;;24.40;29.66;100610.75;10357711;28;20133;-77
2023/06/05 18:34:33;;;;;;;3.42;3.05;;;;;;;24.26;29.70;100609.84;10363241;28;20050;-76
2023/06/05 18:39:37;;;;;;;4.95;3.67;;;;;;;24.15;30.67;100607.72;10362812;28;20049;-76
2023/06/05 18:44:40;;;;;;;5.55;2.80;;;;;;;23.96;31.50;100611.28;10359909;28;20497;-76
2023/06/05 18:49:43;;;;;;;4.90;3.78;;;;;;;23.64;31.72;100619.16;10353159;28;20500;-75
2023/06/05 18:54:47;;;;;;;4.63;3.65;;;;;;;23.40;32.39;100623.28;10361435;28;20119;-75
2023/06/05 18:59:51;;;;;;;4.00;3.00;;;;;;;23.12;33.33;100618.72;10361992;28;20038;-75
2023/06/05 19:04:54;;;;;;;3.63;2.45;;;;;;;22.86;33.03;100616.59;10365252;28;20041;-74
2023/06/05 19:09:59;;;;;;;3.17;2.28;;;;;;;22.65;33.25;100625.69;10365376;28;20504;-74
2023/06/05 19:15:03;;;;;;;3.03;2.60;;;;;;;22.59;33.50;100628.38;10361363;28;20049;-74
2023/06/05 19:20:07;;;;;;;3.30;2.40;;;;;;;22.40;33.98;100641.66;10363653;28;20452;-75
2023/06/05 19:25:13;;;;;;;4.63;3.03;;;;;;;22.01;34.21;100648.41;10360839;28;20038;-75
2023/06/05 19:30:16;;;;;;;4.97;3.20;;;;;;;21.76;38.96;100647.91;10353546;28;20042;-74
2023/06/05 19:35:19;;;;;;;4.88;2.63;;;;;;;21.64;40.32;100653.00;10353451;28;20046;-75
2023/06/05 19:40:23;;;;;;;4.82;3.05;;;;;;;21.47;41.59;100664.31;10356105;28;20512;-75
2023/06/05 19:45:26;;;;;;;3.28;2.85;;;;;;;21.37;42.94;100662.72;10354960;28;20425;-74
2023/06/05 19:50:30;;;;;;;3.70;3.40;;;;;;;21.16;43.85;100671.66;10358952;28;20501;-76
2023/06/05 19:55:34;;;;;;;4.95;3.40;;;;;;;20.97;45.30;100681.19;10359487;28;20041;-74
2023/06/05 20:00:37;;;;;;;5.72;3.40;;;;;;;20.72;46.43;100683.31;10360711;28;20459;-74
2023/06/05 20:05:40;;;;;;;5.97;3.60;;;;;;;20.63;47.13;100694.50;10359944;28;20056;-75
2023/06/05 20:10:44;;;;;;;7.43;3.67;;;;;;;20.49;47.91;100693.41;10361435;28;20112;-74
2023/06/05 20:15:47;;;;;;;6.82;4.28;;;;;;;20.46;48.75;100701.94;10360200;28;20041;-75
2023/06/05 20:20:51;;;;;;;4.90;4.00;;;;;;;20.28;49.40;100707.66;10363359;28;20040;-76
2023/06/05 20:25:55;;;;;;;4.47;3.58;;;;;;;20.10;50.06;100716.09;10362856;28;20041;-76
2023/06/05 20:30:58;;;;;;;8.63;4.65;;;;;;;19.97;50.61;100711.25;10353330;28;20057;-76
2023/06/05 20:36:05;;;;;;;10.75;4.97;;;;;;;19.84;51.11;100714.53;10352986;28;20042;-75
2023/06/05 20:41:12;;;;;;;9.27;4.18;;;;;;;19.69;51.66;100713.56;10364062;28;20076;-76
2023/06/05 20:46:20;;;;;;;7.75;4.30;;;;;;;19.46;52.34;100706.13;10363406;28;20034;-76
2023/06/05 20:51:23;;;;;;;10.57;4.10;;;;;;;19.37;52.98;100709.91;10362000;28;20088;-76
2023/06/05 20:56:28;;;;;;;8.27;5.03;;;;;;;19.27;53.29;100717.41;10360820;28;20042;-75
2023/06/05 21:01:33;;;;;;;10.52;4.65;;;;;;;19.25;53.19;100714.00;10356622;28;20421;-76
2023/06/05 21:06:36;;;;;;;5.72;4.63;;;;;;;19.09;53.78;100708.59;10360215;28;20034;-76
2023/06/05 21:11:41;;;;;;;6.43;4.38;;;;;;;19.03;54.00;100710.13;10369095;28;20053;-76
2023/06/05 21:16:43;;;;;;;14.07;5.25;;;;;;;18.82;54.70;100724.28;10363123;28;20141;-76
2023/06/05 21:21:47;;;;;;;7.70;5.00;;;;;;;18.66;54.98;100718.81;10367533;28;20050;-76
2023/06/05 21:26:51;;;;;;;9.18;5.07;;;;;;;18.52;55.61;100720.31;10366364;28;20508;-75
2023/06/05 21:31:54;;;;;;;10.60;5.28;;;;;;;18.48;55.73;100724.38;10362813;28;20077;-75
2023/06/05 21:36:59;;;;;;;11.90;5.28;;;;;;;18.31;55.94;100723.50;10364701;28;20039;-75
2023/06/05 21:42:04;;;;;;;10.27;5.13;;;;;;;18.29;55.91;100726.41;10363099;28;20045;-75
2023/06/05 21:47:07;;;;;;;8.35;5.10;;;;;;;18.24;56.23;100731.50;10374540;28;20085;-76
2023/06/05 21:52:12;;;;;;;9.25;5.13;;;;;;;18.28;56.04;100726.56;10364738;28;20046;-76
2023/06/05 21:57:16;;;;;;;10.95;4.85;;;;;;;18.05;56.35;100721.75;10358593;28;20125;-76
2023/06/05 22:02:19;;;;;;;6.88;5.22;;;;;;;17.86;56.43;100724.72;10356604;28;20046;-75
2023/06/05 22:07:22;;;;;;;9.20;5.43;;;;;;;17.79;56.41;100727.22;10352367;28;20121;-75
2023/06/05 22:12:29;;;;;;;6.97;5.20;;;;;;;17.56;57.04;100721.50;10352686;28;20087;-76
2023/06/05 22:17:35;;;;;;;6.43;5.50;;;;;;;17.46;57.25;100724.34;10352412;28;20043;-76
2023/06/05 22:22:38;;;;;;;10.43;5.88;;;;;;;17.31;57.53;100736.81;10355170;28;20416;-76
2023/06/05 22:27:43;;;;;;;10.18;5.43;;;;;;;17.21;57.52;100738.78;10358722;28;20042;-76
2023/06/05 22:32:48;;;;;;;11.48;5.28;;;;;;;17.20;57.72;100731.66;10359405;28;20037;-76
2023/06/05 22:37:51;;;;;;;10.40;5.22;;;;;;;17.10;57.75;100739.84;10358699;28;20030;-76
2023/06/05 22:42:55;;;;;;;9.50;4.53;;;;;;;17.01;57.79;100736.22;10357242;28;20278;-76
2023/06/05 22:48:00;;;;;;;9.70;5.80;;;;;;;17.03;58.04;100742.38;10355641;28;20038;-76
2023/06/05 22:53:03;;;;;;;8.18;4.50;;;;;;;16.95;58.01;100741.41;10354828;28;20045;-76
2023/06/05 22:58:08;;;;;;;5.70;5.07;;;;;;;16.91;58.05;100746.31;10358409;28;20469;-76
2023/06/05 23:03:11;;;;;;;13.95;5.95;;;;;;;16.83;57.98;100746.25;10363286;28;20050;-76
2023/06/05 23:08:14;;;;;;;8.68;5.40;;;;;;;16.65;58.22;100742.69;10358578;28;20254;-76
2023/06/05 23:13:21;;;;;;;9.27;5.65;;;;;;;16.51;58.70;100744.97;10361003;28;20046;-76